sensor_id;sensor_type;location;lat;lon;timestamp;temperature;humidity
44823;DHT22;51097;51.984;5.650;2022-11-20T00:00:00;0.30;99.90
44823;DHT22;51097;51.984;5.650;2022-11-20T00:02:25;0.30;99.90
44823;DHT22;51097;51.984;5.650;2022-11-20T00:04:51;0.20;99.90
44823;DHT22;51097;51.984;5.650;2022-11-20T00:07:16;0.20;99.90
44823;DHT22;51097;51.984;5.650;2022-11-20T00:09:42;0.20;99.90
44823;DHT22;51097;51.984;5.650;2022-11-20T00:12:07;0.20;99.90
44823;DHT22;51097;51.984;5.650;2022-11-20T00:14:33;0.20;99.90
44823;DHT22;51097;51.984;5.650;2022-11-20T00:16:59;0.20;99.90
44823;DHT22;51097;51.984;5.650;2022-11-20T00:19:24;0.20;99.90
44823;DHT22;51097;51.984;5.650;2022-11-20T00:21:50;0.20;99.90
44823;DHT22;51097;51.984;5.650;2022-11-20T00:24:16;0.20;99.90
44823;DHT22;51097;51.984;5.650;2022-11-20T00:26:42;0.10;99.90
44823;DHT22;51097;51.984;5.650;2022-11-20T00:29:09;0.10;99.90
44823;DHT22;51097;51.984;5.650;2022-11-20T00:31:36;0.10;99.90
44823;DHT22;51097;51.984;5.650;2022-11-20T00:34:01;0.00;99.90
44823;DHT22;51097;51.984;5.650;2022-11-20T00:36:28;0.00;99.90
44823;DHT22;51097;51.984;5.650;2022-11-20T00:38:55;-0.10;99.90
44823;DHT22;51097;51.984;5.650;2022-11-20T00:41:23;-0.10;99.90
44823;DHT22;51097;51.984;5.650;2022-11-20T00:43:48;0.00;99.90
44823;DHT22;51097;51.984;5.650;2022-11-20T00:46:19;0.00;99.90
44823;DHT22;51097;51.984;5.650;2022-11-20T00:48:46;-0.10;99.90
44823;DHT22;51097;51.984;5.650;2022-11-20T00:51:13;-0.10;99.90
44823;DHT22;51097;51.984;5.650;2022-11-20T00:53:39;-0.10;99.90
44823;DHT22;51097;51.984;5.650;2022-11-20T00:56:08;0.00;99.90
44823;DHT22;51097;51.984;5.650;2022-11-20T00:58:37;-0.20;99.90
44823;DHT22;51097;51.984;5.650;2022-11-20T01:01:03;-0.20;99.90
44823;DHT22;51097;51.984;5.650;2022-11-20T01:03:31;-0.20;99.90
44823;DHT22;51097;51.984;5.650;2022-11-20T01:06:06;-0.20;99.90
44823;DHT22;51097;51.984;5.650;2022-11-20T01:08:34;-0.20;99.90
44823;DHT22;51097;51.984;5.650;2022-11-20T01:11:07;-0.20;99.90
44823;DHT22;51097;51.984;5.650;2022-11-20T01:13:33;-0.20;99.90
44823;DHT22;51097;51.984;5.650;2022-11-20T01:16:13;-0.20;99.90
44823;DHT22;51097;51.984;5.650;2022-11-20T01:18:40;-0.20;99.90
44823;DHT22;51097;51.984;5.650;2022-11-20T01:21:10;-0.30;99.90
44823;DHT22;51097;51.984;5.650;2022-11-20T01:23:38;-0.30;99.90
44823;DHT22;51097;51.984;5.650;2022-11-20T01:26:06;-0.30;99.90
44823;DHT22;51097;51.984;5.650;2022-11-20T01:28:32;-0.30;99.90
44823;DHT22;51097;51.984;5.650;2022-11-20T01:30:58;-0.30;99.90
44823;DHT22;51097;51.984;5.650;2022-11-20T01:33:24;-0.20;99.90
44823;DHT22;51097;51.984;5.650;2022-11-20T01:35:49;-0.30;99.90
44823;DHT22;51097;51.984;5.650;2022-11-20T01:38:16;-0.30;99.90
44823;DHT22;51097;51.984;5.650;2022-11-20T01:40:42;-0.30;99.90
44823;DHT22;51097;51.984;5.650;2022-11-20T01:43:14;-0.40;99.90
44823;DHT22;51097;51.984;5.650;2022-11-20T01:46:15;-0.30;99.90
44823;DHT22;51097;51.984;5.650;2022-11-20T01:51:51;-0.40;99.90
44823;DHT22;51097;51.984;5.650;2022-11-20T01:54:39;-0.30;99.90
44823;DHT22;51097;51.984;5.650;2022-11-20T01:57:08;-0.40;99.90
44823;DHT22;51097;51.984;5.650;2022-11-20T01:59:37;-0.40;99.90
44823;DHT22;51097;51.984;5.650;2022-11-20T02:02:04;-0.50;99.90
44823;DHT22;51097;51.984;5.650;2022-11-20T02:04:30;-0.50;99.90
44823;DHT22;51097;51.984;5.650;2022-11-20T02:06:59;-0.50;99.90
44823;DHT22;51097;51.984;5.650;2022-11-20T02:09:26;-0.50;99.90
44823;DHT22;51097;51.984;5.650;2022-11-20T02:11:52;-0.50;99.90
44823;DHT22;51097;51.984;5.650;2022-11-20T02:14:19;-0.40;99.90
44823;DHT22;51097;51.984;5.650;2022-11-20T02:16:46;-0.40;99.90
44823;DHT22;51097;51.984;5.650;2022-11-20T02:21:47;-0.50;99.90
44823;DHT22;51097;51.984;5.650;2022-11-20T02:24:16;-0.60;99.90
44823;DHT22;51097;51.984;5.650;2022-11-20T02:27:09;-0.60;99.90
44823;DHT22;51097;51.984;5.650;2022-11-20T02:32:03;-0.60;99.90
44823;DHT22;51097;51.984;5.650;2022-11-20T02:34:29;-0.70;99.90
44823;DHT22;51097;51.984;5.650;2022-11-20T02:36:56;-0.70;99.90
44823;DHT22;51097;51.984;5.650;2022-11-20T02:39:24;-0.70;99.90
44823;DHT22;51097;51.984;5.650;2022-11-20T02:41:53;-0.70;99.90
44823;DHT22;51097;51.984;5.650;2022-11-20T02:44:18;-0.70;99.90
44823;DHT22;51097;51.984;5.650;2022-11-20T02:46:44;-0.80;99.90
44823;DHT22;51097;51.984;5.650;2022-11-20T02:49:09;-0.70;99.90
44823;DHT22;51097;51.984;5.650;2022-11-20T02:51:35;-0.80;99.90
44823;DHT22;51097;51.984;5.650;2022-11-20T02:54:00;-0.80;99.90
44823;DHT22;51097;51.984;5.650;2022-11-20T02:56:26;-0.90;99.90
44823;DHT22;51097;51.984;5.650;2022-11-20T02:58:52;-0.90;99.90
44823;DHT22;51097;51.984;5.650;2022-11-20T03:01:18;-1.10;99.90
44823;DHT22;51097;51.984;5.650;2022-11-20T03:03:44;-1.00;99.90
44823;DHT22;51097;51.984;5.650;2022-11-20T03:06:09;-1.00;99.90
44823;DHT22;51097;51.984;5.650;2022-11-20T03:08:35;-1.10;99.90
44823;DHT22;51097;51.984;5.650;2022-11-20T03:11:06;-1.00;99.90
44823;DHT22;51097;51.984;5.650;2022-11-20T03:13:32;-0.90;99.90
44823;DHT22;51097;51.984;5.650;2022-11-20T03:15:58;-1.00;99.90
44823;DHT22;51097;51.984;5.650;2022-11-20T03:18:23;-1.00;99.90
44823;DHT22;51097;51.984;5.650;2022-11-20T03:20:49;-1.00;99.90
44823;DHT22;51097;51.984;5.650;2022-11-20T03:23:14;-1.00;99.90
44823;DHT22;51097;51.984;5.650;2022-11-20T03:25:40;-1.00;99.90
44823;DHT22;51097;51.984;5.650;2022-11-20T03:28:05;-1.00;99.90
44823;DHT22;51097;51.984;5.650;2022-11-20T03:30:31;-1.00;99.90
44823;DHT22;51097;51.984;5.650;2022-11-20T03:32:56;-0.90;99.90
44823;DHT22;51097;51.984;5.650;2022-11-20T03:35:22;-0.90;99.90
44823;DHT22;51097;51.984;5.650;2022-11-20T03:37:47;-1.00;99.90
44823;DHT22;51097;51.984;5.650;2022-11-20T03:40:13;-0.90;99.90
44823;DHT22;51097;51.984;5.650;2022-11-20T03:42:39;-1.00;99.90
44823;DHT22;51097;51.984;5.650;2022-11-20T03:45:11;-0.90;99.90
44823;DHT22;51097;51.984;5.650;2022-11-20T03:47:37;-0.90;99.90
44823;DHT22;51097;51.984;5.650;2022-11-20T03:50:03;-0.80;99.90
44823;DHT22;51097;51.984;5.650;2022-11-20T03:52:29;-0.80;99.90
44823;DHT22;51097;51.984;5.650;2022-11-20T03:54:54;-0.80;99.90
44823;DHT22;51097;51.984;5.650;2022-11-20T03:57:20;-0.90;99.90
44823;DHT22;51097;51.984;5.650;2022-11-20T03:59:46;-0.90;99.90
44823;DHT22;51097;51.984;5.650;2022-11-20T04:02:11;-0.90;99.90
44823;DHT22;51097;51.984;5.650;2022-11-20T04:04:37;-1.00;99.90
44823;DHT22;51097;51.984;5.650;2022-11-20T04:07:02;-1.00;99.90
44823;DHT22;51097;51.984;5.650;2022-11-20T04:09:28;-1.00;99.90
44823;DHT22;51097;51.984;5.650;2022-11-20T04:11:53;-1.00;99.90
44823;DHT22;51097;51.984;5.650;2022-11-20T04:14:19;-1.00;99.90
44823;DHT22;51097;51.984;5.650;2022-11-20T04:16:45;-1.00;99.90
44823;DHT22;51097;51.984;5.650;2022-11-20T04:19:13;-1.00;99.90
44823;DHT22;51097;51.984;5.650;2022-11-20T04:21:39;-1.00;99.90
44823;DHT22;51097;51.984;5.650;2022-11-20T04:24:05;-1.10;99.90
44823;DHT22;51097;51.984;5.650;2022-11-20T04:26:31;-1.10;99.90
44823;DHT22;51097;51.984;5.650;2022-11-20T04:28:57;-1.10;99.90
44823;DHT22;51097;51.984;5.650;2022-11-20T04:31:27;-1.00;99.90
44823;DHT22;51097;51.984;5.650;2022-11-20T04:33:53;-1.00;99.90
44823;DHT22;51097;51.984;5.650;2022-11-20T04:36:21;-1.00;99.90
44823;DHT22;51097;51.984;5.650;2022-11-20T04:38:51;-0.80;99.90
44823;DHT22;51097;51.984;5.650;2022-11-20T04:41:24;-1.00;99.90
44823;DHT22;51097;51.984;5.650;2022-11-20T04:43:52;-1.00;99.90
44823;DHT22;51097;51.984;5.650;2022-11-20T04:46:19;-1.00;99.90
44823;DHT22;51097;51.984;5.650;2022-11-20T04:48:45;-1.10;99.90
44823;DHT22;51097;51.984;5.650;2022-11-20T04:51:12;-1.20;99.90
44823;DHT22;51097;51.984;5.650;2022-11-20T04:53:38;-1.20;99.90
44823;DHT22;51097;51.984;5.650;2022-11-20T04:56:06;-1.20;99.90
44823;DHT22;51097;51.984;5.650;2022-11-20T04:58:32;-1.20;99.90
44823;DHT22;51097;51.984;5.650;2022-11-20T05:03:31;-1.20;99.90
44823;DHT22;51097;51.984;5.650;2022-11-20T05:06:00;-1.20;99.90
44823;DHT22;51097;51.984;5.650;2022-11-20T05:08:26;-1.30;99.90
44823;DHT22;51097;51.984;5.650;2022-11-20T05:10:52;-1.30;99.90
44823;DHT22;51097;51.984;5.650;2022-11-20T05:13:17;-1.30;99.90
44823;DHT22;51097;51.984;5.650;2022-11-20T05:15:43;-1.30;99.90
44823;DHT22;51097;51.984;5.650;2022-11-20T05:18:08;-1.40;99.90
44823;DHT22;51097;51.984;5.650;2022-11-20T05:20:34;-1.30;99.90
44823;DHT22;51097;51.984;5.650;2022-11-20T05:23:01;-1.30;99.90
44823;DHT22;51097;51.984;5.650;2022-11-20T05:25:27;-1.30;99.90
44823;DHT22;51097;51.984;5.650;2022-11-20T05:27:53;-1.40;99.90
44823;DHT22;51097;51.984;5.650;2022-11-20T05:30:18;-1.40;99.90
44823;DHT22;51097;51.984;5.650;2022-11-20T05:32:44;-1.40;99.90
44823;DHT22;51097;51.984;5.650;2022-11-20T05:35:10;-1.40;99.90
44823;DHT22;51097;51.984;5.650;2022-11-20T05:37:35;-1.40;99.90
44823;DHT22;51097;51.984;5.650;2022-11-20T05:40:01;-1.30;99.90
44823;DHT22;51097;51.984;5.650;2022-11-20T05:42:29;-1.30;99.90
44823;DHT22;51097;51.984;5.650;2022-11-20T05:45:02;-1.40;99.90
44823;DHT22;51097;51.984;5.650;2022-11-20T05:47:32;-1.40;99.90
44823;DHT22;51097;51.984;5.650;2022-11-20T05:49:58;-1.50;99.90
44823;DHT22;51097;51.984;5.650;2022-11-20T05:52:23;-1.50;99.90
44823;DHT22;51097;51.984;5.650;2022-11-20T05:54:49;-1.50;99.90
44823;DHT22;51097;51.984;5.650;2022-11-20T05:57:14;-1.50;99.90
44823;DHT22;51097;51.984;5.650;2022-11-20T05:59:40;-1.40;99.90
44823;DHT22;51097;51.984;5.650;2022-11-20T06:02:06;-1.50;99.90
44823;DHT22;51097;51.984;5.650;2022-11-20T06:04:31;-1.50;99.90
44823;DHT22;51097;51.984;5.650;2022-11-20T06:06:57;-1.40;99.90
44823;DHT22;51097;51.984;5.650;2022-11-20T06:09:22;-1.60;99.90
44823;DHT22;51097;51.984;5.650;2022-11-20T06:11:48;-1.50;99.90
44823;DHT22;51097;51.984;5.650;2022-11-20T06:14:13;-1.50;99.90
44823;DHT22;51097;51.984;5.650;2022-11-20T06:16:39;-1.50;99.90
44823;DHT22;51097;51.984;5.650;2022-11-20T06:19:04;-1.50;99.90
44823;DHT22;51097;51.984;5.650;2022-11-20T06:21:30;-1.50;99.90
44823;DHT22;51097;51.984;5.650;2022-11-20T06:23:55;-1.50;99.90
44823;DHT22;51097;51.984;5.650;2022-11-20T06:26:23;-1.40;99.90
44823;DHT22;51097;51.984;5.650;2022-11-20T06:28:50;-1.40;99.90
44823;DHT22;51097;51.984;5.650;2022-11-20T06:31:18;-1.50;99.90
44823;DHT22;51097;51.984;5.650;2022-11-20T06:33:44;-1.40;99.90
44823;DHT22;51097;51.984;5.650;2022-11-20T06:36:12;-1.50;99.90
44823;DHT22;51097;51.984;5.650;2022-11-20T06:38:39;-1.50;99.90
44823;DHT22;51097;51.984;5.650;2022-11-20T06:41:06;-1.40;99.90
44823;DHT22;51097;51.984;5.650;2022-11-20T06:43:32;-1.50;99.90
44823;DHT22;51097;51.984;5.650;2022-11-20T06:45:58;-1.50;99.90
44823;DHT22;51097;51.984;5.650;2022-11-20T06:48:28;-1.50;99.90
44823;DHT22;51097;51.984;5.650;2022-11-20T06:50:54;-1.50;99.90
44823;DHT22;51097;51.984;5.650;2022-11-20T06:53:19;-1.60;99.90
44823;DHT22;51097;51.984;5.650;2022-11-20T06:55:46;-1.60;99.90
44823;DHT22;51097;51.984;5.650;2022-11-20T06:58:12;-1.60;99.90
44823;DHT22;51097;51.984;5.650;2022-11-20T07:00:38;-1.60;99.90
44823;DHT22;51097;51.984;5.650;2022-11-20T07:03:05;-1.60;99.90
44823;DHT22;51097;51.984;5.650;2022-11-20T07:05:30;-1.50;99.90
44823;DHT22;51097;51.984;5.650;2022-11-20T07:07:59;-1.50;99.90
44823;DHT22;51097;51.984;5.650;2022-11-20T07:10:25;-1.50;99.90
44823;DHT22;51097;51.984;5.650;2022-11-20T07:12:52;-1.60;99.90
44823;DHT22;51097;51.984;5.650;2022-11-20T07:15:19;-1.70;99.90
44823;DHT22;51097;51.984;5.650;2022-11-20T07:17:45;-1.70;99.90
44823;DHT22;51097;51.984;5.650;2022-11-20T07:20:11;-1.60;99.90
44823;DHT22;51097;51.984;5.650;2022-11-20T07:22:37;-1.70;99.90
44823;DHT22;51097;51.984;5.650;2022-11-20T07:25:03;-1.60;99.90
44823;DHT22;51097;51.984;5.650;2022-11-20T07:27:29;-1.50;99.90
44823;DHT22;51097;51.984;5.650;2022-11-20T07:29:54;-1.40;99.90
44823;DHT22;51097;51.984;5.650;2022-11-20T07:32:20;-1.50;99.90
44823;DHT22;51097;51.984;5.650;2022-11-20T07:34:46;-1.40;99.90
44823;DHT22;51097;51.984;5.650;2022-11-20T07:37:12;-1.30;99.90
44823;DHT22;51097;51.984;5.650;2022-11-20T07:39:38;-1.40;99.90
44823;DHT22;51097;51.984;5.650;2022-11-20T07:42:03;-1.30;99.90
44823;DHT22;51097;51.984;5.650;2022-11-20T07:44:29;-1.30;99.90
44823;DHT22;51097;51.984;5.650;2022-11-20T07:46:54;-1.20;99.90
44823;DHT22;51097;51.984;5.650;2022-11-20T07:49:20;-1.30;99.90
44823;DHT22;51097;51.984;5.650;2022-11-20T07:51:45;-1.20;99.90
44823;DHT22;51097;51.984;5.650;2022-11-20T07:54:11;-1.10;99.90
44823;DHT22;51097;51.984;5.650;2022-11-20T07:56:36;-1.10;99.90
44823;DHT22;51097;51.984;5.650;2022-11-20T07:59:03;-1.00;99.90
44823;DHT22;51097;51.984;5.650;2022-11-20T08:01:28;-0.90;99.90
44823;DHT22;51097;51.984;5.650;2022-11-20T08:03:54;-0.90;99.90
44823;DHT22;51097;51.984;5.650;2022-11-20T08:06:19;-0.70;99.90
44823;DHT22;51097;51.984;5.650;2022-11-20T08:08:45;-0.60;99.90
44823;DHT22;51097;51.984;5.650;2022-11-20T08:11:10;-0.60;99.90
44823;DHT22;51097;51.984;5.650;2022-11-20T08:13:55;-0.50;99.90
44823;DHT22;51097;51.984;5.650;2022-11-20T08:16:40;-0.40;99.90
44823;DHT22;51097;51.984;5.650;2022-11-20T08:19:06;-0.30;99.90
44823;DHT22;51097;51.984;5.650;2022-11-20T08:21:32;-0.20;99.90
44823;DHT22;51097;51.984;5.650;2022-11-20T08:23:58;-0.10;99.90
44823;DHT22;51097;51.984;5.650;2022-11-20T08:26:24;0.00;99.90
44823;DHT22;51097;51.984;5.650;2022-11-20T08:28:53;0.20;99.90
44823;DHT22;51097;51.984;5.650;2022-11-20T08:31:20;0.30;99.90
44823;DHT22;51097;51.984;5.650;2022-11-20T08:33:45;0.30;99.90
44823;DHT22;51097;51.984;5.650;2022-11-20T08:36:11;0.50;99.90
44823;DHT22;51097;51.984;5.650;2022-11-20T08:38:36;0.60;99.90
44823;DHT22;51097;51.984;5.650;2022-11-20T08:41:03;0.70;99.90
44823;DHT22;51097;51.984;5.650;2022-11-20T08:43:47;0.90;99.90
44823;DHT22;51097;51.984;5.650;2022-11-20T08:46:13;1.00;99.90
44823;DHT22;51097;51.984;5.650;2022-11-20T08:48:38;1.20;99.90
44823;DHT22;51097;51.984;5.650;2022-11-20T08:51:04;1.30;99.90
44823;DHT22;51097;51.984;5.650;2022-11-20T08:53:30;1.40;99.90
44823;DHT22;51097;51.984;5.650;2022-11-20T08:55:56;1.60;99.90
44823;DHT22;51097;51.984;5.650;2022-11-20T08:58:22;1.70;99.90
44823;DHT22;51097;51.984;5.650;2022-11-20T09:00:48;1.80;99.90
44823;DHT22;51097;51.984;5.650;2022-11-20T09:03:13;1.90;99.90
44823;DHT22;51097;51.984;5.650;2022-11-20T09:05:39;2.10;99.90
44823;DHT22;51097;51.984;5.650;2022-11-20T09:08:05;2.10;99.90
44823;DHT22;51097;51.984;5.650;2022-11-20T09:10:30;2.20;99.90
44823;DHT22;51097;51.984;5.650;2022-11-20T09:12:56;2.30;99.90
44823;DHT22;51097;51.984;5.650;2022-11-20T09:15:23;2.40;99.90
44823;DHT22;51097;51.984;5.650;2022-11-20T09:17:59;2.50;99.90
44823;DHT22;51097;51.984;5.650;2022-11-20T09:20:26;2.60;99.90
44823;DHT22;51097;51.984;5.650;2022-11-20T09:22:51;2.70;99.90
44823;DHT22;51097;51.984;5.650;2022-11-20T09:25:17;2.80;99.90
44823;DHT22;51097;51.984;5.650;2022-11-20T09:27:43;2.80;99.90
44823;DHT22;51097;51.984;5.650;2022-11-20T09:30:12;2.90;99.90
44823;DHT22;51097;51.984;5.650;2022-11-20T09:32:41;2.90;99.90
44823;DHT22;51097;51.984;5.650;2022-11-20T09:35:07;2.90;99.90
44823;DHT22;51097;51.984;5.650;2022-11-20T09:37:33;2.90;99.90
44823;DHT22;51097;51.984;5.650;2022-11-20T09:39:58;3.10;99.90
44823;DHT22;51097;51.984;5.650;2022-11-20T09:42:31;3.20;99.90
44823;DHT22;51097;51.984;5.650;2022-11-20T09:45:14;3.30;99.90
44823;DHT22;51097;51.984;5.650;2022-11-20T09:47:57;3.40;99.90
44823;DHT22;51097;51.984;5.650;2022-11-20T09:50:32;3.50;99.90
44823;DHT22;51097;51.984;5.650;2022-11-20T09:53:30;3.60;99.90
44823;DHT22;51097;51.984;5.650;2022-11-20T09:56:01;3.60;99.90
44823;DHT22;51097;51.984;5.650;2022-11-20T09:58:33;3.60;99.90
44823;DHT22;51097;51.984;5.650;2022-11-20T10:01:15;3.80;99.90
44823;DHT22;51097;51.984;5.650;2022-11-20T10:03:45;3.90;99.90
44823;DHT22;51097;51.984;5.650;2022-11-20T10:06:17;3.90;99.90
44823;DHT22;51097;51.984;5.650;2022-11-20T10:11:42;4.00;99.90
44823;DHT22;51097;51.984;5.650;2022-11-20T10:22:35;4.40;99.90
44823;DHT22;51097;51.984;5.650;2022-11-20T10:25:27;4.50;99.90
44823;DHT22;51097;51.984;5.650;2022-11-20T10:28:16;4.40;99.90
44823;DHT22;51097;51.984;5.650;2022-11-20T10:30:45;4.50;99.90
44823;DHT22;51097;51.984;5.650;2022-11-20T10:33:21;4.50;99.90
44823;DHT22;51097;51.984;5.650;2022-11-20T10:36:07;4.60;99.90
44823;DHT22;51097;51.984;5.650;2022-11-20T10:38:42;4.70;99.90
44823;DHT22;51097;51.984;5.650;2022-11-20T10:41:17;4.80;99.90
44823;DHT22;51097;51.984;5.650;2022-11-20T10:44:02;4.90;99.90
44823;DHT22;51097;51.984;5.650;2022-11-20T10:46:37;5.00;99.90
44823;DHT22;51097;51.984;5.650;2022-11-20T10:49:15;5.20;99.90
44823;DHT22;51097;51.984;5.650;2022-11-20T10:52:03;5.20;99.90
44823;DHT22;51097;51.984;5.650;2022-11-20T10:55:04;5.30;99.90
44823;DHT22;51097;51.984;5.650;2022-11-20T10:57:52;5.40;99.90
44823;DHT22;51097;51.984;5.650;2022-11-20T11:00:22;5.50;99.90
44823;DHT22;51097;51.984;5.650;2022-11-20T11:02:52;5.60;99.90
44823;DHT22;51097;51.984;5.650;2022-11-20T11:08:38;5.60;99.90
44823;DHT22;51097;51.984;5.650;2022-11-20T11:11:21;5.70;99.90
44823;DHT22;51097;51.984;5.650;2022-11-20T11:13:47;5.80;99.90
44823;DHT22;51097;51.984;5.650;2022-11-20T11:18:47;5.80;99.90
44823;DHT22;51097;51.984;5.650;2022-11-20T11:21:13;6.00;99.90
44823;DHT22;51097;51.984;5.650;2022-11-20T11:23:46;6.00;99.90
44823;DHT22;51097;51.984;5.650;2022-11-20T11:26:23;6.10;99.90
44823;DHT22;51097;51.984;5.650;2022-11-20T11:28:56;6.10;99.90
44823;DHT22;51097;51.984;5.650;2022-11-20T11:31:24;6.10;99.90
44823;DHT22;51097;51.984;5.650;2022-11-20T11:33:50;6.10;99.90
44823;DHT22;51097;51.984;5.650;2022-11-20T11:36:19;6.10;99.90
44823;DHT22;51097;51.984;5.650;2022-11-20T11:38:51;6.20;99.90
44823;DHT22;51097;51.984;5.650;2022-11-20T11:41:28;6.20;99.90
44823;DHT22;51097;51.984;5.650;2022-11-20T11:44:19;6.20;99.90
44823;DHT22;51097;51.984;5.650;2022-11-20T11:47:04;6.10;99.90
44823;DHT22;51097;51.984;5.650;2022-11-20T11:49:31;6.10;99.90
44823;DHT22;51097;51.984;5.650;2022-11-20T11:54:43;6.20;99.90
44823;DHT22;51097;51.984;5.650;2022-11-20T12:00:03;6.20;99.90
44823;DHT22;51097;51.984;5.650;2022-11-20T12:02:37;6.30;99.90
44823;DHT22;51097;51.984;5.650;2022-11-20T12:05:39;6.20;99.90
44823;DHT22;51097;51.984;5.650;2022-11-20T12:08:15;6.10;99.90
44823;DHT22;51097;51.984;5.650;2022-11-20T12:13:30;6.10;99.90
44823;DHT22;51097;51.984;5.650;2022-11-20T12:15:58;6.10;99.90
44823;DHT22;51097;51.984;5.650;2022-11-20T12:18:24;6.20;99.90
44823;DHT22;51097;51.984;5.650;2022-11-20T12:23:53;6.30;99.90
44823;DHT22;51097;51.984;5.650;2022-11-20T12:29:36;6.50;99.90
44823;DHT22;51097;51.984;5.650;2022-11-20T12:43:01;6.70;99.90
44823;DHT22;51097;51.984;5.650;2022-11-20T12:46:03;6.60;99.90
44823;DHT22;51097;51.984;5.650;2022-11-20T12:49:01;6.60;99.90
44823;DHT22;51097;51.984;5.650;2022-11-20T12:57:24;6.60;99.90
44823;DHT22;51097;51.984;5.650;2022-11-20T13:08:40;6.30;99.90
44823;DHT22;51097;51.984;5.650;2022-11-20T13:14:33;6.30;99.90
44823;DHT22;51097;51.984;5.650;2022-11-20T13:17:17;6.30;99.90
44823;DHT22;51097;51.984;5.650;2022-11-20T13:19:49;6.40;99.90
44823;DHT22;51097;51.984;5.650;2022-11-20T13:22:28;6.40;99.90
44823;DHT22;51097;51.984;5.650;2022-11-20T13:24:53;6.40;99.90
44823;DHT22;51097;51.984;5.650;2022-11-20T13:27:24;6.50;99.90
44823;DHT22;51097;51.984;5.650;2022-11-20T13:30:12;6.50;99.90
44823;DHT22;51097;51.984;5.650;2022-11-20T13:32:48;6.40;99.90
44823;DHT22;51097;51.984;5.650;2022-11-20T13:35:24;6.50;99.90
44823;DHT22;51097;51.984;5.650;2022-11-20T13:38:00;6.50;99.90
44823;DHT22;51097;51.984;5.650;2022-11-20T13:40:26;6.50;99.90
44823;DHT22;51097;51.984;5.650;2022-11-20T13:45:40;6.30;99.90
44823;DHT22;51097;51.984;5.650;2022-11-20T13:48:20;6.40;99.90
44823;DHT22;51097;51.984;5.650;2022-11-20T13:53:48;6.40;99.90
44823;DHT22;51097;51.984;5.650;2022-11-20T13:56:27;6.20;99.90
44823;DHT22;51097;51.984;5.650;2022-11-20T13:59:05;6.20;99.90
44823;DHT22;51097;51.984;5.650;2022-11-20T14:01:33;6.00;99.90
44823;DHT22;51097;51.984;5.650;2022-11-20T14:04:08;6.00;99.90
44823;DHT22;51097;51.984;5.650;2022-11-20T14:06:43;6.00;99.90
44823;DHT22;51097;51.984;5.650;2022-11-20T14:09:30;6.00;99.90
44823;DHT22;51097;51.984;5.650;2022-11-20T14:11:56;6.00;99.90
44823;DHT22;51097;51.984;5.650;2022-11-20T14:14:24;6.10;99.90
44823;DHT22;51097;51.984;5.650;2022-11-20T14:16:53;6.00;99.90
44823;DHT22;51097;51.984;5.650;2022-11-20T14:22:17;6.20;99.90
44823;DHT22;51097;51.984;5.650;2022-11-20T14:24:44;6.30;99.90
44823;DHT22;51097;51.984;5.650;2022-11-20T14:27:19;6.10;99.90
44823;DHT22;51097;51.984;5.650;2022-11-20T14:29:47;6.20;99.90
44823;DHT22;51097;51.984;5.650;2022-11-20T14:32:18;6.20;99.90
44823;DHT22;51097;51.984;5.650;2022-11-20T14:34:45;6.20;99.90
44823;DHT22;51097;51.984;5.650;2022-11-20T14:37:17;6.00;99.90
44823;DHT22;51097;51.984;5.650;2022-11-20T14:39:50;6.00;99.90
44823;DHT22;51097;51.984;5.650;2022-11-20T14:42:20;6.00;99.90
44823;DHT22;51097;51.984;5.650;2022-11-20T14:44:48;5.90;99.90
44823;DHT22;51097;51.984;5.650;2022-11-20T14:47:18;6.00;99.90
44823;DHT22;51097;51.984;5.650;2022-11-20T14:49:44;6.10;99.90
44823;DHT22;51097;51.984;5.650;2022-11-20T14:52:18;6.00;99.90
44823;DHT22;51097;51.984;5.650;2022-11-20T14:59:47;5.90;99.90
44823;DHT22;51097;51.984;5.650;2022-11-20T15:02:13;6.00;99.90
44823;DHT22;51097;51.984;5.650;2022-11-20T15:04:46;6.20;99.90
44823;DHT22;51097;51.984;5.650;2022-11-20T15:07:11;6.20;99.90
44823;DHT22;51097;51.984;5.650;2022-11-20T15:09:47;6.30;99.90
44823;DHT22;51097;51.984;5.650;2022-11-20T15:12:23;6.40;99.90
44823;DHT22;51097;51.984;5.650;2022-11-20T15:14:49;6.30;99.90
44823;DHT22;51097;51.984;5.650;2022-11-20T15:17:15;6.30;99.90
44823;DHT22;51097;51.984;5.650;2022-11-20T15:19:40;6.30;99.90
44823;DHT22;51097;51.984;5.650;2022-11-20T15:22:12;6.20;99.90
44823;DHT22;51097;51.984;5.650;2022-11-20T15:24:41;6.30;99.90
44823;DHT22;51097;51.984;5.650;2022-11-20T15:27:09;6.10;99.90
44823;DHT22;51097;51.984;5.650;2022-11-20T15:29:34;6.20;99.90
44823;DHT22;51097;51.984;5.650;2022-11-20T15:32:00;6.20;99.90
44823;DHT22;51097;51.984;5.650;2022-11-20T15:34:27;6.20;99.90
44823;DHT22;51097;51.984;5.650;2022-11-20T15:36:53;6.30;99.90
44823;DHT22;51097;51.984;5.650;2022-11-20T15:39:19;6.40;99.90
44823;DHT22;51097;51.984;5.650;2022-11-20T15:41:45;6.60;99.90
44823;DHT22;51097;51.984;5.650;2022-11-20T15:44:11;6.60;99.90
44823;DHT22;51097;51.984;5.650;2022-11-20T15:46:39;6.60;99.90
44823;DHT22;51097;51.984;5.650;2022-11-20T15:49:14;6.60;99.90
44823;DHT22;51097;51.984;5.650;2022-11-20T15:51:49;6.30;99.90
44823;DHT22;51097;51.984;5.650;2022-11-20T15:54:20;6.30;99.90
44823;DHT22;51097;51.984;5.650;2022-11-20T15:56:47;6.40;99.90
44823;DHT22;51097;51.984;5.650;2022-11-20T15:59:13;6.30;99.90
44823;DHT22;51097;51.984;5.650;2022-11-20T16:01:42;6.40;99.90
44823;DHT22;51097;51.984;5.650;2022-11-20T16:04:15;6.40;99.90
44823;DHT22;51097;51.984;5.650;2022-11-20T16:06:41;6.30;99.90
44823;DHT22;51097;51.984;5.650;2022-11-20T16:09:07;6.30;99.90
44823;DHT22;51097;51.984;5.650;2022-11-20T16:11:33;6.40;99.90
44823;DHT22;51097;51.984;5.650;2022-11-20T16:14:02;6.60;99.90
44823;DHT22;51097;51.984;5.650;2022-11-20T16:16:46;6.60;99.90
44823;DHT22;51097;51.984;5.650;2022-11-20T16:19:12;6.60;99.90
44823;DHT22;51097;51.984;5.650;2022-11-20T16:21:38;6.50;99.90
44823;DHT22;51097;51.984;5.650;2022-11-20T16:24:08;6.50;99.90
44823;DHT22;51097;51.984;5.650;2022-11-20T16:26:34;6.60;99.90
44823;DHT22;51097;51.984;5.650;2022-11-20T16:29:01;6.60;99.90
44823;DHT22;51097;51.984;5.650;2022-11-20T16:31:28;6.60;99.90
44823;DHT22;51097;51.984;5.650;2022-11-20T16:33:55;6.70;99.90
44823;DHT22;51097;51.984;5.650;2022-11-20T16:36:23;6.70;99.90
44823;DHT22;51097;51.984;5.650;2022-11-20T16:38:53;6.70;99.90
44823;DHT22;51097;51.984;5.650;2022-11-20T16:41:19;6.70;99.90
44823;DHT22;51097;51.984;5.650;2022-11-20T16:43:45;7.00;99.90
44823;DHT22;51097;51.984;5.650;2022-11-20T16:46:12;7.00;99.90
44823;DHT22;51097;51.984;5.650;2022-11-20T16:48:38;7.00;99.90
44823;DHT22;51097;51.984;5.650;2022-11-20T16:51:07;7.00;99.90
44823;DHT22;51097;51.984;5.650;2022-11-20T16:53:33;7.10;99.90
44823;DHT22;51097;51.984;5.650;2022-11-20T16:56:11;7.10;99.90
44823;DHT22;51097;51.984;5.650;2022-11-20T16:58:38;7.00;99.90
44823;DHT22;51097;51.984;5.650;2022-11-20T17:01:08;7.00;99.90
44823;DHT22;51097;51.984;5.650;2022-11-20T17:03:39;7.10;99.90
44823;DHT22;51097;51.984;5.650;2022-11-20T17:06:16;7.20;99.90
44823;DHT22;51097;51.984;5.650;2022-11-20T17:08:42;7.30;99.90
44823;DHT22;51097;51.984;5.650;2022-11-20T17:11:10;7.20;99.90
44823;DHT22;51097;51.984;5.650;2022-11-20T17:13:36;7.20;99.90
44823;DHT22;51097;51.984;5.650;2022-11-20T17:16:14;7.20;99.90